createdAt,value
2023-12-19T00:02:24.727Z,39.45
2023-12-19T00:04:53.220Z,39.69
2023-12-19T00:07:24.745Z,39.50
2023-12-19T00:09:54.012Z,39.51
2023-12-19T00:12:22.600Z,39.87
2023-12-19T00:14:51.112Z,39.89
2023-12-19T00:17:19.499Z,39.36
2023-12-19T00:19:49.493Z,39.73
2023-12-19T00:22:17.975Z,40.04
2023-12-19T00:24:46.496Z,39.79
2023-12-19T00:27:15.065Z,39.95
2023-12-19T00:29:43.439Z,39.79
2023-12-19T00:32:11.896Z,39.87
2023-12-19T00:34:40.477Z,39.85
2023-12-19T00:37:10.314Z,39.73
2023-12-19T00:39:39.054Z,39.70
2023-12-19T00:42:07.820Z,39.87
2023-12-19T00:44:37.734Z,39.77
2023-12-19T00:47:06.560Z,39.61
2023-12-19T00:49:35.061Z,39.67
2023-12-19T00:52:03.765Z,39.33
2023-12-19T00:54:33.663Z,39.62
2023-12-19T00:57:02.335Z,39.33
2023-12-19T00:59:30.687Z,39.52
2023-12-19T01:01:59.185Z,39.40
2023-12-19T01:04:27.735Z,39.33
2023-12-19T01:06:56.286Z,39.44
2023-12-19T01:09:25.377Z,39.22
2023-12-19T01:11:55.276Z,39.55
2023-12-19T01:14:22.879Z,39.38
2023-12-19T01:16:51.503Z,39.26
2023-12-19T01:19:19.974Z,39.41
2023-12-19T01:21:50.176Z,39.02
2023-12-19T01:24:18.793Z,39.16
2023-12-19T01:26:50.450Z,39.15
2023-12-19T01:29:20.206Z,39.28
2023-12-19T01:31:48.726Z,39.21
2023-12-19T01:34:17.551Z,39.20
2023-12-19T01:36:56.616Z,39.23
2023-12-19T01:39:26.712Z,39.17
2023-12-19T01:41:55.208Z,39.01
2023-12-19T01:44:26.723Z,38.88
2023-12-19T01:46:55.316Z,38.92
2023-12-19T01:49:23.809Z,38.91
2023-12-19T01:51:52.402Z,39.03
2023-12-19T01:54:21.013Z,38.85
2023-12-19T01:56:49.546Z,38.99
2023-12-19T01:59:17.975Z,38.79
2023-12-19T02:01:47.910Z,38.55
2023-12-19T02:04:16.448Z,39.07
2023-12-19T02:06:45.089Z,38.92
2023-12-19T02:09:13.562Z,38.92
2023-12-19T02:11:41.950Z,38.80
2023-12-19T02:14:10.488Z,38.84
2023-12-19T02:16:39.639Z,38.79
2023-12-19T02:19:09.509Z,38.69
2023-12-19T02:21:38.193Z,38.90
2023-12-19T02:24:08.465Z,38.70
2023-12-19T02:26:37.127Z,38.54
2023-12-19T02:29:05.620Z,38.83
2023-12-19T02:31:34.283Z,38.67
2023-12-19T02:34:03.039Z,38.68
2023-12-19T02:36:31.735Z,38.74
2023-12-19T02:39:00.226Z,38.59
2023-12-19T02:41:30.074Z,38.54
2023-12-19T02:43:58.653Z,38.55
2023-12-19T02:46:27.128Z,38.51
2023-12-19T02:48:55.714Z,38.67
2023-12-19T02:51:24.247Z,38.57
2023-12-19T02:53:52.718Z,38.72
2023-12-19T02:56:21.198Z,38.64
2023-12-19T02:58:50.946Z,38.66
2023-12-19T03:01:20.165Z,38.60
2023-12-19T03:03:50.155Z,38.58
2023-12-19T03:06:20.582Z,38.53
2023-12-19T03:08:49.759Z,38.53
2023-12-19T03:11:18.370Z,38.57
2023-12-19T03:13:47.512Z,38.56
2023-12-19T03:16:17.546Z,38.44
2023-12-19T03:18:46.077Z,38.55
2023-12-19T03:21:14.505Z,38.36
2023-12-19T03:23:42.955Z,38.49
2023-12-19T03:26:11.314Z,38.58
2023-12-19T03:28:39.820Z,38.55
2023-12-19T03:31:08.297Z,38.56
2023-12-19T03:33:38.154Z,38.29
2023-12-19T03:36:07.314Z,38.32
2023-12-19T03:38:36.775Z,38.48
2023-12-19T03:41:05.695Z,38.61
2023-12-19T03:43:36.043Z,38.46
2023-12-19T03:46:08.890Z,38.57
2023-12-19T03:48:39.027Z,38.26
2023-12-19T03:51:09.153Z,38.53
2023-12-19T03:53:37.703Z,38.25
2023-12-19T03:56:07.224Z,38.25
2023-12-19T03:58:35.673Z,38.20
2023-12-19T04:01:04.246Z,38.42
2023-12-19T04:03:32.709Z,38.29
2023-12-19T04:06:02.531Z,38.36
2023-12-19T04:08:31.088Z,38.18
2023-12-19T04:10:59.430Z,38.12
2023-12-19T04:13:27.981Z,38.35
2023-12-19T04:15:56.397Z,38.18
2023-12-19T04:18:25.368Z,38.28
2023-12-19T04:20:53.865Z,38.05
2023-12-19T04:23:23.930Z,38.46
2023-12-19T04:25:52.505Z,38.38
2023-12-19T04:28:21.136Z,38.09
2023-12-19T04:30:49.929Z,38.18
2023-12-19T04:33:18.695Z,38.12
2023-12-19T04:35:47.114Z,38.21
2023-12-19T04:38:15.703Z,38.25
2023-12-19T04:40:45.660Z,38.09
2023-12-19T04:43:14.490Z,38.20
2023-12-19T04:45:43.244Z,38.19
2023-12-19T04:48:11.689Z,38.19
2023-12-19T04:50:40.386Z,38.05
2023-12-19T04:53:09.506Z,38.19
2023-12-19T04:55:38.038Z,38.18
2023-12-19T04:58:08.046Z,38.01
2023-12-19T05:00:36.634Z,38.03
2023-12-19T05:03:05.653Z,38.14
2023-12-19T05:05:34.143Z,38.11
2023-12-19T05:08:02.719Z,38.10
2023-12-19T05:10:31.210Z,37.78
2023-12-19T05:12:59.614Z,38.04
2023-12-19T05:15:29.550Z,37.84
2023-12-19T05:17:58.092Z,38.00
2023-12-19T05:20:29.201Z,37.85
2023-12-19T05:22:58.072Z,38.05
2023-12-19T05:25:26.643Z,37.88
2023-12-19T05:27:55.169Z,37.95
2023-12-19T05:30:23.997Z,38.00
2023-12-19T05:32:53.927Z,37.76
2023-12-19T05:35:22.529Z,37.91
2023-12-19T05:37:51.038Z,37.96
2023-12-19T05:40:20.267Z,37.68
2023-12-19T05:42:49.485Z,37.86
2023-12-19T05:45:17.931Z,37.77
2023-12-19T05:47:46.907Z,37.67
2023-12-19T05:50:17.461Z,37.68
2023-12-19T05:52:46.729Z,37.67
2023-12-19T05:55:15.606Z,37.60
2023-12-19T05:57:44.007Z,37.89
2023-12-19T06:00:14.120Z,37.80
2023-12-19T06:02:43.044Z,38.00
2023-12-19T06:05:11.913Z,37.73
2023-12-19T06:07:42.861Z,37.67
2023-12-19T06:10:12.181Z,37.70
2023-12-19T06:12:40.813Z,37.86
2023-12-19T06:15:12.888Z,37.73
2023-12-19T06:17:43.084Z,37.92
2023-12-19T06:20:12.279Z,38.20
2023-12-19T06:22:43.189Z,38.23
2023-12-19T06:25:11.829Z,38.34
2023-12-19T06:27:41.646Z,38.48
2023-12-19T06:30:19.838Z,38.17
2023-12-19T06:32:55.900Z,39.09
2023-12-19T06:35:24.771Z,38.03
2023-12-19T06:37:54.890Z,38.65
2023-12-19T06:40:23.378Z,38.64
2023-12-19T06:42:52.211Z,38.69
2023-12-19T06:45:21.116Z,38.62
2023-12-19T06:47:49.630Z,38.79
2023-12-19T06:50:20.021Z,39.38
2023-12-19T06:52:49.038Z,39.34
2023-12-19T06:55:19.481Z,38.56
2023-12-19T06:57:48.230Z,38.99
2023-12-19T07:00:18.385Z,38.07
2023-12-19T07:02:47.256Z,38.54
2023-12-19T07:05:15.880Z,38.71
2023-12-19T07:07:44.501Z,38.84
2023-12-19T07:10:14.184Z,38.78
2023-12-19T07:12:44.693Z,39.16
2023-12-19T07:15:13.408Z,38.98
2023-12-19T07:17:41.901Z,39.41
2023-12-19T07:20:12.801Z,39.13
2023-12-19T07:22:43.053Z,38.83
2023-12-19T07:25:12.313Z,39.28
2023-12-19T07:27:42.767Z,38.91
2023-12-19T07:30:14.982Z,39.07
2023-12-19T07:32:43.842Z,39.22
2023-12-19T07:35:14.856Z,39.35
2023-12-19T07:37:43.534Z,39.60
2023-12-19T07:40:14.308Z,39.71
2023-12-19T07:42:43.747Z,39.49
2023-12-19T07:45:14.274Z,39.45
2023-12-19T07:47:42.757Z,39.29
2023-12-19T07:50:12.962Z,39.71
2023-12-19T07:53:00.012Z,39.58
2023-12-19T07:55:28.505Z,39.66
2023-12-19T07:57:56.955Z,39.40
2023-12-19T08:00:27.104Z,39.36
2023-12-19T08:02:56.779Z,39.53
2023-12-19T08:05:26.093Z,39.46
2023-12-19T08:07:54.637Z,39.36
2023-12-19T08:10:23.161Z,39.38
2023-12-19T08:12:51.877Z,40.03
2023-12-19T08:15:20.293Z,39.79
2023-12-19T08:17:50.268Z,40.35
2023-12-19T08:20:18.911Z,40.38
2023-12-19T08:22:47.413Z,40.24
2023-12-19T08:25:16.186Z,39.97
2023-12-19T08:27:44.745Z,40.18
2023-12-19T08:30:16.383Z,40.17
2023-12-19T08:32:45.183Z,39.56
2023-12-19T08:35:15.463Z,40.08
2023-12-19T08:37:44.430Z,39.63
2023-12-19T08:40:13.866Z,39.55
2023-12-19T08:42:43.178Z,39.54
2023-12-19T08:45:16.978Z,39.44
2023-12-19T08:47:45.816Z,40.10
2023-12-19T08:50:16.780Z,39.51
2023-12-19T08:52:45.685Z,39.19
2023-12-19T08:55:14.513Z,39.84
2023-12-19T08:57:46.811Z,40.31
2023-12-19T09:00:17.604Z,40.46
2023-12-19T09:02:46.415Z,40.28
2023-12-19T09:05:18.217Z,40.47
2023-12-19T09:07:49.013Z,39.93
2023-12-19T09:10:18.432Z,40.12
2023-12-19T09:12:47.335Z,39.83
2023-12-19T09:15:15.892Z,40.54
2023-12-19T09:17:45.139Z,39.98
2023-12-19T09:20:14.982Z,40.15
2023-12-19T09:22:43.555Z,39.81
2023-12-19T09:25:16.664Z,40.44
2023-12-19T09:27:45.948Z,39.92
2023-12-19T09:30:16.191Z,40.18
2023-12-19T09:32:45.033Z,40.14
2023-12-19T09:35:15.620Z,39.74
2023-12-19T09:37:46.014Z,40.50
2023-12-19T09:40:17.084Z,41.10
2023-12-19T09:42:46.000Z,41.33
2023-12-19T09:45:16.708Z,41.24
2023-12-19T09:47:50.584Z,41.61
2023-12-19T09:50:21.917Z,42.13
2023-12-19T09:52:50.336Z,42.88
2023-12-19T09:55:19.197Z,43.06
2023-12-19T09:57:47.715Z,43.82
2023-12-19T10:00:16.570Z,44.47
2023-12-19T10:02:45.367Z,44.70
2023-12-19T10:05:13.898Z,44.41
2023-12-19T10:07:43.813Z,42.33
2023-12-19T10:10:13.907Z,44.40
2023-12-19T10:12:57.258Z,43.13
2023-12-19T10:15:27.824Z,43.04
2023-12-19T10:18:09.705Z,43.14
2023-12-19T10:20:39.479Z,43.67
2023-12-19T10:23:10.507Z,43.48
2023-12-19T10:25:45.534Z,43.14
2023-12-19T10:28:16.326Z,42.58
2023-12-19T10:30:46.124Z,43.66
2023-12-19T10:33:15.724Z,43.83
2023-12-19T10:35:46.417Z,43.86
2023-12-19T10:38:16.534Z,43.95
2023-12-19T10:40:45.023Z,45.41
2023-12-19T10:43:13.503Z,46.34
2023-12-19T10:45:42.018Z,45.05
2023-12-19T10:48:11.071Z,44.49
2023-12-19T10:50:39.839Z,44.73
2023-12-19T10:53:08.566Z,44.10
2023-12-19T10:55:44.324Z,44.33
2023-12-19T10:58:13.572Z,44.26
2023-12-19T11:00:43.241Z,43.93
2023-12-19T11:03:15.699Z,44.16
2023-12-19T11:05:46.923Z,43.73
2023-12-19T11:08:17.171Z,43.87
2023-12-19T11:10:52.544Z,43.65
2023-12-19T11:13:20.990Z,43.58
2023-12-19T11:15:53.321Z,43.82
2023-12-19T11:18:28.417Z,43.67
2023-12-19T11:21:02.958Z,42.95
2023-12-19T11:23:40.314Z,43.95
2023-12-19T11:26:12.833Z,43.72
2023-12-19T11:28:42.354Z,44.29
2023-12-19T11:31:32.359Z,43.52
2023-12-19T11:34:03.205Z,43.93
2023-12-19T11:36:31.868Z,43.19
2023-12-19T11:39:35.006Z,45.07
2023-12-19T11:42:08.131Z,44.89
2023-12-19T11:44:36.738Z,45.26
2023-12-19T11:47:17.734Z,45.89
2023-12-19T11:49:46.569Z,45.46
2023-12-19T11:52:34.319Z,43.28
2023-12-19T11:55:05.112Z,45.80
2023-12-19T11:57:36.031Z,45.05
2023-12-19T12:00:07.566Z,45.89
2023-12-19T12:02:38.609Z,46.53
2023-12-19T12:05:09.347Z,46.58
2023-12-19T12:07:43.614Z,47.06
2023-12-19T12:10:13.117Z,47.31
2023-12-19T12:12:43.038Z,46.55
2023-12-19T12:15:14.826Z,46.00
2023-12-19T12:17:45.739Z,46.86
2023-12-19T12:20:14.812Z,46.52
2023-12-19T12:22:43.499Z,46.56
2023-12-19T12:25:13.476Z,46.50
2023-12-19T12:27:43.771Z,45.69
2023-12-19T12:30:13.638Z,46.22
2023-12-19T12:32:42.975Z,45.95
2023-12-19T12:35:30.014Z,45.40
2023-12-19T12:38:01.806Z,45.47
2023-12-19T12:40:30.560Z,45.46
2023-12-19T12:43:34.829Z,46.13
2023-12-19T12:46:09.665Z,45.57
2023-12-19T12:48:40.167Z,45.04
2023-12-19T12:51:09.217Z,44.60
2023-12-19T12:53:38.268Z,45.03
2023-12-19T12:56:13.764Z,44.80
2023-12-19T12:58:44.351Z,44.89
2023-12-19T13:01:13.012Z,44.65
2023-12-19T13:03:42.536Z,44.96
2023-12-19T13:06:13.404Z,44.81
2023-12-19T13:08:41.861Z,45.40
2023-12-19T13:11:10.305Z,44.71
2023-12-19T13:13:39.180Z,44.62
2023-12-19T13:16:10.469Z,44.28
2023-12-19T13:18:42.278Z,43.95
2023-12-19T13:21:11.223Z,44.74
2023-12-19T13:23:39.853Z,44.31
2023-12-19T13:26:08.303Z,44.53
2023-12-19T13:28:37.548Z,43.95
2023-12-19T13:31:09.618Z,43.97
2023-12-19T13:33:40.270Z,45.05
2023-12-19T13:36:10.133Z,44.62
2023-12-19T13:38:38.702Z,44.96
2023-12-19T13:41:07.368Z,45.28
2023-12-19T13:43:37.298Z,45.02
2023-12-19T13:46:06.991Z,44.95
2023-12-19T13:48:35.902Z,45.02
2023-12-19T13:51:06.794Z,44.72
2023-12-19T13:53:35.601Z,44.06
2023-12-19T13:56:06.290Z,44.81
2023-12-19T13:58:35.607Z,44.27
2023-12-19T14:01:04.273Z,44.82
2023-12-19T14:03:33.191Z,44.52
2023-12-19T14:06:01.992Z,44.98
2023-12-19T14:08:33.180Z,44.43
2023-12-19T14:11:01.587Z,46.49
2023-12-19T14:13:29.973Z,45.11
2023-12-19T14:15:58.496Z,44.43
2023-12-19T14:18:27.128Z,44.71
2023-12-19T14:20:56.219Z,45.06
2023-12-19T14:23:24.677Z,44.52
2023-12-19T14:25:54.542Z,44.68
2023-12-19T14:28:23.269Z,44.60
2023-12-19T14:30:52.020Z,44.69
2023-12-19T14:33:20.887Z,45.01
2023-12-19T14:35:49.896Z,45.10
2023-12-19T14:38:18.360Z,45.04
2023-12-19T14:40:49.515Z,44.68
2023-12-19T14:43:20.623Z,44.71
2023-12-19T14:45:50.296Z,44.90
2023-12-19T14:48:18.804Z,44.78
2023-12-19T14:50:47.593Z,43.67
2023-12-19T14:53:16.212Z,44.52
2023-12-19T14:55:44.662Z,44.29
2023-12-19T14:58:13.460Z,43.95
2023-12-19T15:00:43.432Z,44.10
2023-12-19T15:03:11.893Z,44.27
2023-12-19T15:05:40.445Z,44.24
2023-12-19T15:08:09.151Z,44.49
2023-12-19T15:10:37.760Z,44.74
2023-12-19T15:13:07.283Z,44.71
2023-12-19T15:15:35.921Z,44.31
2023-12-19T15:18:07.521Z,44.25
2023-12-19T15:20:36.193Z,44.25
2023-12-19T15:23:08.226Z,43.96
2023-12-19T15:25:37.260Z,44.21
2023-12-19T15:28:12.319Z,44.04
2023-12-19T15:30:46.995Z,44.43
2023-12-19T15:33:17.102Z,44.16
2023-12-19T15:35:47.101Z,44.42
2023-12-19T15:38:16.766Z,44.18
2023-12-19T15:40:46.058Z,44.36
2023-12-19T15:43:25.928Z,44.87
2023-12-19T15:46:08.336Z,45.16
2023-12-19T15:48:38.531Z,44.62
2023-12-19T15:51:07.413Z,44.69
2023-12-19T15:53:36.082Z,44.11
2023-12-19T15:56:04.671Z,45.61
2023-12-19T15:58:35.524Z,44.40
2023-12-19T16:01:05.790Z,44.20
2023-12-19T16:03:34.418Z,44.36
2023-12-19T16:06:04.473Z,44.15
2023-12-19T16:08:34.138Z,44.42
2023-12-19T16:11:02.570Z,44.15
2023-12-19T16:13:30.997Z,44.26
2023-12-19T16:15:59.431Z,44.47
2023-12-19T16:18:28.521Z,44.52
2023-12-19T16:20:57.066Z,44.39
2023-12-19T16:23:26.869Z,44.85
2023-12-19T16:25:58.245Z,44.29
2023-12-19T16:28:26.991Z,44.78
2023-12-19T16:30:55.655Z,44.49
2023-12-19T16:33:25.311Z,46.09
2023-12-19T16:35:54.077Z,44.37
2023-12-19T16:38:22.988Z,44.98
2023-12-19T16:40:53.426Z,45.21
2023-12-19T16:43:22.679Z,45.94
2023-12-19T16:45:51.517Z,46.01
2023-12-19T16:48:20.321Z,45.37
2023-12-19T16:50:49.231Z,44.90
2023-12-19T16:53:18.037Z,44.99
2023-12-19T16:55:46.629Z,44.82
2023-12-19T16:58:16.909Z,44.80
2023-12-19T17:00:45.533Z,45.53
2023-12-19T17:03:14.145Z,45.00
2023-12-19T17:05:43.101Z,45.63
2023-12-19T17:08:11.795Z,45.29
2023-12-19T17:10:42.949Z,44.69
2023-12-19T17:13:11.444Z,44.96
2023-12-19T17:15:42.986Z,45.26
2023-12-19T17:18:11.645Z,45.02
2023-12-19T17:20:40.287Z,45.22
2023-12-19T17:23:08.870Z,44.84
2023-12-19T17:25:37.614Z,45.19
2023-12-19T17:28:06.735Z,44.77
2023-12-19T17:30:37.095Z,45.15
2023-12-19T17:33:07.755Z,45.28
2023-12-19T17:35:36.357Z,45.10
2023-12-19T17:38:05.038Z,45.17
2023-12-19T17:40:33.614Z,45.11
2023-12-19T17:43:02.296Z,45.04
2023-12-19T17:45:30.965Z,45.39
2023-12-19T17:47:59.519Z,45.37
2023-12-19T17:50:31.091Z,45.11
2023-12-19T17:53:00.049Z,45.90
2023-12-19T17:55:28.667Z,44.96
2023-12-19T17:57:57.343Z,45.31
2023-12-19T18:00:25.961Z,45.31
2023-12-19T18:02:55.421Z,45.42
2023-12-19T18:05:23.931Z,45.51
2023-12-19T18:07:53.883Z,45.81
2023-12-19T18:10:22.982Z,46.28
2023-12-19T18:12:52.796Z,45.19
2023-12-19T18:15:21.437Z,44.89
2023-12-19T18:17:50.026Z,44.93
2023-12-19T18:20:20.323Z,45.72
2023-12-19T18:22:52.402Z,45.83
2023-12-19T18:25:23.733Z,45.77
2023-12-19T18:27:52.692Z,45.02
2023-12-19T18:30:21.473Z,45.44
2023-12-19T18:32:50.125Z,45.56
2023-12-19T18:35:19.749Z,45.27
2023-12-19T18:37:50.731Z,45.60
2023-12-19T18:40:19.681Z,45.26
2023-12-19T18:42:56.334Z,44.44
2023-12-19T18:45:25.190Z,43.27
2023-12-19T18:47:54.083Z,41.13
2023-12-19T18:50:22.910Z,42.72
2023-12-19T18:52:54.338Z,38.12
2023-12-19T18:55:24.005Z,38.34
2023-12-19T18:57:54.484Z,38.27
2023-12-19T19:00:23.304Z,37.67
2023-12-19T19:02:52.067Z,37.45
2023-12-19T19:05:20.896Z,36.68
2023-12-19T19:07:52.584Z,36.83
2023-12-19T19:10:23.069Z,36.92
2023-12-19T19:12:54.088Z,37.10
2023-12-19T19:15:24.402Z,36.17
2023-12-19T19:17:52.941Z,36.65
2023-12-19T19:20:37.452Z,36.08
2023-12-19T19:23:06.293Z,36.19
2023-12-19T19:25:35.584Z,36.73
2023-12-19T19:28:04.302Z,36.24
2023-12-19T19:30:34.675Z,35.69
2023-12-19T19:33:03.827Z,35.66
2023-12-19T19:35:32.365Z,38.05
2023-12-19T19:38:03.308Z,36.13
2023-12-19T19:40:38.870Z,35.87
2023-12-19T19:43:13.240Z,35.92
2023-12-19T19:45:43.683Z,35.66
2023-12-19T19:48:12.842Z,35.58
2023-12-19T19:50:42.766Z,35.33
2023-12-19T19:53:11.822Z,35.45
2023-12-19T19:55:40.438Z,35.31
2023-12-19T19:58:08.988Z,35.45
2023-12-19T20:00:38.291Z,37.86
2023-12-19T20:03:08.420Z,38.90
2023-12-19T20:05:37.181Z,40.23
2023-12-19T20:08:08.545Z,40.59
2023-12-19T20:10:37.415Z,41.33
2023-12-19T20:13:06.285Z,41.02
2023-12-19T20:15:35.020Z,41.26
2023-12-19T20:18:03.983Z,41.00
2023-12-19T20:20:33.969Z,41.38
2023-12-19T20:23:02.645Z,41.31
2023-12-19T20:25:31.136Z,41.29
2023-12-19T20:27:59.846Z,41.34
2023-12-19T20:30:28.407Z,41.41
2023-12-19T20:32:58.841Z,41.68
2023-12-19T20:35:28.041Z,41.26
2023-12-19T20:37:59.710Z,41.51
2023-12-19T20:40:31.876Z,41.54
2023-12-19T20:43:00.979Z,41.54
2023-12-19T20:45:29.528Z,41.25
2023-12-19T20:47:58.339Z,41.42
2023-12-19T20:50:27.157Z,41.73
2023-12-19T20:52:57.743Z,41.56
2023-12-19T20:55:26.497Z,41.51
2023-12-19T20:57:55.333Z,41.51
2023-12-19T21:00:26.514Z,41.45
2023-12-19T21:02:55.401Z,41.43
2023-12-19T21:05:24.263Z,41.51
2023-12-19T21:07:52.893Z,41.56
2023-12-19T21:10:23.674Z,42.00
2023-12-19T21:12:52.312Z,40.76
2023-12-19T21:15:21.284Z,41.37
2023-12-19T21:17:49.783Z,41.36
2023-12-19T21:20:18.684Z,41.32
2023-12-19T21:22:48.046Z,41.66
2023-12-19T21:25:17.721Z,41.62
2023-12-19T21:27:50.916Z,41.47
2023-12-19T21:30:19.961Z,41.40
2023-12-19T21:32:48.862Z,41.47
2023-12-19T21:35:18.137Z,41.54
2023-12-19T21:37:46.671Z,41.87
2023-12-19T21:40:15.476Z,41.73
2023-12-19T21:42:44.649Z,41.71
2023-12-19T21:45:15.148Z,41.69
2023-12-19T21:47:46.263Z,41.71
2023-12-19T21:50:16.557Z,41.69
2023-12-19T21:52:45.712Z,41.71
2023-12-19T21:55:14.253Z,41.38
2023-12-19T21:57:43.625Z,41.49
2023-12-19T22:00:14.512Z,41.69
2023-12-19T22:02:44.126Z,41.55
2023-12-19T22:05:13.283Z,41.29
2023-12-19T22:07:42.529Z,41.87
2023-12-19T22:10:11.776Z,41.38
2023-12-19T22:12:43.020Z,41.38
2023-12-19T22:15:16.708Z,41.72
2023-12-19T22:17:45.659Z,41.44
2023-12-19T22:20:17.142Z,41.79
2023-12-19T22:22:46.226Z,41.54
2023-12-19T22:25:15.735Z,41.65
2023-12-19T22:27:46.297Z,41.70
2023-12-19T22:30:16.651Z,41.79
2023-12-19T22:32:45.335Z,41.58
2023-12-19T22:35:14.093Z,41.46
2023-12-19T22:37:42.861Z,41.68
2023-12-19T22:40:13.334Z,41.31
2023-12-19T22:42:41.935Z,41.35
2023-12-19T22:45:12.843Z,41.61
2023-12-19T22:47:43.607Z,41.67
2023-12-19T22:50:12.696Z,41.74
2023-12-19T22:52:41.442Z,41.40
2023-12-19T22:55:11.471Z,41.93
2023-12-19T22:57:40.111Z,41.46
2023-12-19T23:00:17.749Z,41.40
2023-12-19T23:02:47.866Z,41.35
2023-12-19T23:05:17.745Z,41.56
2023-12-19T23:07:48.760Z,41.37
2023-12-19T23:10:17.778Z,41.30
2023-12-19T23:12:46.797Z,41.71
2023-12-19T23:15:15.505Z,41.56
2023-12-19T23:17:44.433Z,41.31
2023-12-19T23:20:15.133Z,41.41
2023-12-19T23:22:44.892Z,41.55
2023-12-19T23:25:13.929Z,41.66
2023-12-19T23:27:42.619Z,41.42
2023-12-19T23:30:13.065Z,41.39
2023-12-19T23:32:41.484Z,41.14
2023-12-19T23:35:10.368Z,41.32
2023-12-19T23:37:40.174Z,41.06
2023-12-19T23:40:10.567Z,41.13
2023-12-19T23:42:39.146Z,41.19
2023-12-19T23:45:08.557Z,41.14
2023-12-19T23:47:37.165Z,41.25
2023-12-19T23:50:06.821Z,41.00
2023-12-19T23:52:35.410Z,40.99
2023-12-19T23:55:05.864Z,41.10
2023-12-19T23:57:34.709Z,41.35
